Weather reports worldwide

Advertisment
Villafranca, Spain (8241): temperature & dewpoint: 10.09.2019 05:00:00 - 16.09.2019 05:00:00 (CEST)Villafranca, Spain (8241): wind speed & gusts: 10.09.2019 05:00:00 - 16.09.2019 05:00:00 (CEST)Villafranca, Spain (8241): wind direction: 10.09.2019 05:00:00 - 16.09.2019 05:00:00 (CEST)Villafranca, Spain (8241): visibility: 10.09.2019 05:00:00 - 16.09.2019 05:00:00 (CEST)Villafranca, Spain (8241): sunshine duration: 10.09.2019 05:00:00 - 16.09.2019 05:00:00 (CEST)Villafranca, Spain (8241): precipitation: 10.09.2019 05:00:00 - 16.09.2019 05:00:00 (CEST)
Date & Time tt [°C] td [°C] ff [km/h] ff [kn] fx [km/h] fx [kn] dd vv [km] sd [min] rr [mm]
16.09.2019 05:00:00 - - - - - - - - - -
16.09.2019 04:00:00 15,1 13,9 3 2 10 6 NW - 0 0,0
16.09.2019 03:00:00 15,2 13,9 6 3 10 5 ESE - 0 0,0
16.09.2019 02:00:00 15,0 13,4 8 4 11 6 SE - 0 -
16.09.2019 01:00:00 15,7 13,9 6 4 15 8 SSE - 0 0,0
16.09.2019 00:00:00 15,7 13,9 6 3 13 7 SSE - 0 0,0
15.09.2019 23:00:00 16,0 14,0 9 5 14 7 SE - 0 0,0
15.09.2019 22:00:00 16,5 14,5 7 4 11 6 SSE - 0 0,0
15.09.2019 21:00:00 16,7 14,5 5 3 10 5 SSE - 0 0,0
15.09.2019 20:00:00 17,3 14,7 4 2 19 10 SE - 0 -
15.09.2019 19:00:00 18,0 14,9 8 4 19 10 SE - 3 0,0
15.09.2019 18:00:00 18,5 14,6 7 4 21 11 ESE - 0 0,0
15.09.2019 17:00:00 19,2 14,0 10 5 26 14 ESE - 32 0,0
15.09.2019 16:00:00 21,5 13,7 13 7 26 14 ESE - 56 0,0
15.09.2019 15:00:00 21,8 13,2 10 5 27 15 SE - 60 0,0
15.09.2019 14:00:00 20,7 13,4 12 7 21 12 SE - 58 -
15.09.2019 13:00:00 18,6 13,3 6 4 14 7 SE - 43 0,0
15.09.2019 12:00:00 18,0 13,1 4 2 12 6 SSE - 28 0,0
15.09.2019 11:00:00 15,7 12,6 4 2 14 8 ESE - 0 0,0
15.09.2019 10:00:00 14,6 12,1 5 3 11 6 E - 0 0,0
15.09.2019 09:00:00 13,1 11,3 3 2 6 4 ESE - 0 0,0
15.09.2019 08:00:00 12,0 9,9 4 2 8 5 N - 0 -
15.09.2019 07:00:00 10,8 8,5 6 3 9 5 NNW - 0 0,0
15.09.2019 06:00:00 10,6 7,4 4 2 9 5 NNW 20 0 0,0
15.09.2019 05:00:00 11,3 7,4 1 1 6 3 NNE 20 0 0,0
15.09.2019 04:00:00 12,9 7,3 4 2 6 4 W - 0 0,0
15.09.2019 03:00:00 14,0 7,3 5 3 10 5 S - 0 0,0
15.09.2019 02:00:00 12,7 8,4 4 2 9 5 ESE - 0 -
15.09.2019 01:00:00 14,2 8,1 2 1 14 8 W - 0 0,0
15.09.2019 00:00:00 15,6 7,1 5 3 10 6 SSE - 0 0,0
14.09.2019 23:00:00 15,5 8,9 5 3 8 5 N - 0 0,0
14.09.2019 22:00:00 16,0 8,7 5 3 8 4 NW - 0 0,0
14.09.2019 21:00:00 16,4 7,0 4 2 15 8 WNW - 0 0,0
14.09.2019 20:00:00 17,2 8,4 6 3 17 9 NNE - 7 -
14.09.2019 19:00:00 19,1 8,1 6 3 13 7 NE - 15 0,0
14.09.2019 18:00:00 19,4 10,4 6 3 18 10 NE - 33 0,0
14.09.2019 17:00:00 19,8 10,5 9 5 26 14 E - 60 0,0
14.09.2019 16:00:00 19,8 8,8 14 8 29 16 SE - 60 0,0
14.09.2019 15:00:00 21,1 8,4 10 6 27 14 E - 60 0,0
14.09.2019 14:00:00 19,5 8,8 14 7 29 15 E - 53 -
14.09.2019 13:00:00 18,4 10,5 5 3 19 10 WNW - 47 0,0
14.09.2019 12:00:00 16,3 10,8 9 5 16 8 NW - 17 0,0
14.09.2019 11:00:00 13,9 11,2 2 1 9 5 NW - 0 0,0
14.09.2019 10:00:00 13,4 9,4 4 2 12 6 ESE - 0 0,0
14.09.2019 09:00:00 12,3 8,8 7 4 12 6 SSE - 0 0,0
14.09.2019 08:00:00 9,9 8,7 4 2 8 4 WNW 19 0 -
14.09.2019 07:00:00 - - - - - - - - - -
14.09.2019 06:00:00 9,3 7,8 4 2 9 5 NNW 16 0 0,0
14.09.2019 05:00:00 9,4 8,0 6 3 14 7 NNW 20 0 0,0
14.09.2019 04:00:00 9,7 8,3 8 5 14 7 NW 20 0 0,0
14.09.2019 03:00:00 10,0 8,7 5 3 12 7 NNW 20 0 0,0
14.09.2019 02:00:00 10,5 9,0 8 4 13 7 NW 20 0 -
14.09.2019 01:00:00 11,2 9,7 10 5 13 7 NW 20 0 0,0
14.09.2019 00:00:00 12,4 10,8 5 3 10 5 W - 0 0,0
13.09.2019 23:00:00 13,2 11,8 8 4 19 10 N - 0 1,4
13.09.2019 22:00:00 13,6 11,8 6 4 21 12 SSE - 0 4,2
13.09.2019 21:00:00 13,9 11,6 14 7 25 14 SE - 0 1,2
13.09.2019 20:00:00 14,4 11,9 5 3 9 5 S - 0 -
13.09.2019 19:00:00 14,6 12,1 4 2 13 7 WNW - 0 0,6
13.09.2019 18:00:00 15,6 10,8 8 4 23 12 E - 0 0,0
13.09.2019 17:00:00 17,7 10,8 8 4 24 13 E - 29 0,0
13.09.2019 16:00:00 - - - - - - - - - -
13.09.2019 15:00:00 14,2 11,6 6 3 28 15 E - 0 0,0
13.09.2019 14:00:00 13,5 10,5 13 7 30 16 E - 0 -
13.09.2019 13:00:00 13,1 11,1 11 6 41 22 NW - 0 0,4
13.09.2019 12:00:00 12,3 10,0 14 8 31 17 NE - 0 1,6
13.09.2019 11:00:00 12,8 8,9 10 5 30 16 ENE - 0 0,2
13.09.2019 10:00:00 12,8 8,3 11 6 21 11 NNW - 0 0,0
13.09.2019 09:00:00 11,9 7,6 7 4 11 6 NW - 0 0,0
13.09.2019 08:00:00 - - - - - - - - - -
13.09.2019 07:00:00 10,4 6,1 6 4 12 7 NW 20 0 0,0
13.09.2019 06:00:00 10,4 5,9 9 5 14 7 NNW 20 0 0,0
13.09.2019 05:00:00 10,5 6,1 7 4 13 7 NW 20 0 0,0
13.09.2019 04:00:00 11,4 5,9 7 4 19 10 WNW 20 0 0,0
13.09.2019 03:00:00 11,6 6,5 12 7 18 10 NW - 0 0,0
13.09.2019 02:00:00 11,9 6,4 3 2 10 6 NW - 0 -
13.09.2019 01:00:00 - - - - - - - - - -
13.09.2019 00:00:00 12,7 7,0 2 1 14 8 SSE - 0 0,0
12.09.2019 23:00:00 13,1 8,8 2 1 8 4 NNW - 0 0,0
12.09.2019 22:00:00 14,4 9,0 4 2 8 4 WNW - 0 0,0
12.09.2019 21:00:00 15,7 8,4 4 2 6 4 ESE - 0 0,0
12.09.2019 20:00:00 17,5 7,3 4 2 16 9 SSE - 41 -
12.09.2019 19:00:00 19,1 6,8 8 4 16 9 ESE - 58 0,0
12.09.2019 18:00:00 19,2 7,6 11 6 23 12 ESE - 60 0,0
12.09.2019 17:00:00 21,6 8,1 13 7 31 17 E - 60 0,0
12.09.2019 16:00:00 - - - - - - - - - -
12.09.2019 15:00:00 20,0 10,6 12 7 26 14 ENE - 50 0,0
12.09.2019 14:00:00 19,8 9,9 9 5 29 16 E - 60 -
12.09.2019 13:00:00 15,5 8,7 5 3 18 10 WNW - 8 0,0
12.09.2019 12:00:00 12,8 9,4 5 3 14 8 N - 0 0,0
12.09.2019 11:00:00 11,9 9,4 10 5 19 10 NW - 0 0,0
12.09.2019 10:00:00 10,9 8,7 11 6 17 9 NNW - 2 0,0
12.09.2019 09:00:00 10,2 8,0 10 5 22 12 N 20 7 0,0
12.09.2019 08:00:00 9,5 7,6 10 6 19 11 NNW 20 0 -
12.09.2019 07:00:00 10,0 8,3 11 6 20 11 NW 20 0 0,0
12.09.2019 06:00:00 10,2 8,3 12 6 24 13 N 20 0 0,0
12.09.2019 05:00:00 10,3 8,3 13 7 22 12 N 20 0 0,0
12.09.2019 04:00:00 10,6 8,5 10 6 29 16 N 20 0 0,0
12.09.2019 03:00:00 11,2 9,2 16 9 27 15 N - 0 0,0
12.09.2019 02:00:00 11,8 10,4 11 6 24 13 N 15 0 -
12.09.2019 01:00:00 12,0 10,8 14 8 22 12 N - 0 0,0
12.09.2019 00:00:00 11,5 10,3 9 5 14 8 NNW 10 0 0,0
11.09.2019 23:00:00 - - - - - - - - - -
11.09.2019 22:00:00 12,2 10,6 10 5 30 16 NNW - 0 0,0
11.09.2019 21:00:00 12,6 11,0 12 7 28 15 NE - 0 0,0
11.09.2019 20:00:00 12,8 11,2 12 6 27 14 NE - 0 -
11.09.2019 19:00:00 12,7 11,2 15 8 30 16 NE - 0 6,6
11.09.2019 18:00:00 12,6 11,2 8 4 18 10 N - 1 1,2
11.09.2019 17:00:00 12,0 10,5 10 5 26 14 N - 0 0,8
11.09.2019 16:00:00 11,6 10,3 13 7 27 15 NNW - 1 0,4
11.09.2019 15:00:00 10,6 9,3 16 8 35 19 NNW 20 0 0,2
11.09.2019 14:00:00 9,9 8,5 19 10 36 20 NNW 13 0 -
11.09.2019 13:00:00 10,8 8,8 24 13 38 20 NNW 15 5 0,4
11.09.2019 12:00:00 10,1 8,3 23 12 40 22 NNW 17 0 0,0
11.09.2019 11:00:00 8,7 7,1 20 11 45 24 N 16 0 0,6
11.09.2019 10:00:00 8,6 7,0 27 15 45 24 NNW 6 0 1,6
11.09.2019 09:00:00 8,7 7,1 24 13 41 22 NNW 12 0 2,0
11.09.2019 08:00:00 8,3 6,5 24 13 47 26 NNW 11 0 -
11.09.2019 07:00:00 8,3 6,2 24 13 44 24 NNW 20 0 0,8
11.09.2019 06:00:00 8,3 6,2 26 14 48 26 NW 10 0 0,4
11.09.2019 05:00:00 8,4 6,2 26 14 48 26 NNW 20 0 0,0
11.09.2019 04:00:00 8,1 6,2 26 14 45 24 NW 20 0 0,0
11.09.2019 03:00:00 7,8 6,2 27 15 48 26 NW 20 0 1,6
11.09.2019 02:00:00 7,9 6,5 27 15 45 25 NW 7 0 -
11.09.2019 01:00:00 8,1 6,2 32 18 51 28 NW 11 0 1,0
11.09.2019 00:00:00 8,3 6,2 31 17 49 27 NW 13 0 0,6
10.09.2019 23:00:00 8,1 6,4 17 9 42 23 NNW 20 0 0,6
10.09.2019 22:00:00 8,0 6,2 24 13 40 22 NW 20 0 0,8
10.09.2019 21:00:00 7,5 5,8 13 7 36 19 NW 20 0 2,6
10.09.2019 20:00:00 7,8 5,3 24 13 49 27 N 5 11 -
10.09.2019 19:00:00 12,9 2,1 30 16 55 30 NW - 46 0,0
10.09.2019 18:00:00 13,4 2,3 35 19 68 37 NW - 50 0,0
10.09.2019 17:00:00 15,3 1,5 42 23 64 34 NW - 54 0,0
10.09.2019 16:00:00 15,2 0,9 39 21 62 33 NW - 59 0,0
10.09.2019 15:00:00 16,0 0,9 37 20 64 35 NNW - 59 0,0
10.09.2019 14:00:00 15,1 1,3 39 21 61 33 NW - 60 -
10.09.2019 13:00:00 14,4 1,7 36 20 67 36 NW - 60 0,0
10.09.2019 12:00:00 13,0 2,5 38 20 - - NW - - -
10.09.2019 11:00:00 - - - - - - - - - -
10.09.2019 10:00:00 - - - - - - - - - -
10.09.2019 09:00:00 - - - - - - - - - -
10.09.2019 08:00:00 - - - - - - - - - -
10.09.2019 07:00:00 - - - - - - - - - -
10.09.2019 06:00:00 - - - - - - - - - -
10.09.2019 05:00:00 - - - - - - - - - -

tt = temperature
td = dewpoint
ff = wind speed
fx = gusts
dd = wind direction
vv = visibility
sd = sunshine duration
rr = precipitation

Next stations